Overview Statistics Trail Chart Weather Telemetry Raw packets
 

This is the latest recevied weather packets stored in our database for station/object ED3YAB-7. If no packets are shown the sender has not sent any weather packets the latest 10 day(s).

<< 15 16 17 18 19 20 21 >>
Time Temp. Humidity Pressure Rain* Wind** Luminosity Snow
1777808246 21.67° C 45% 1021.2 hPa - - - -
1777807697 20.56° C 47% 1021 hPa - - - -
1777806497 19.44° C 50% 1021.4 hPa - - - -
1777805304 17.22° C 56% 1022.2 hPa - - - -
1777805296 17.22° C 56% 1022.2 hPa - - - -
1777804108 17.78° C 50% 1021.9 hPa - - - -
1777804096 17.78° C 50% 1021.9 hPa - - - -
1777802904 19.44° C 44% 1021.9 hPa - - - -
1777802896 19.44° C 44% 1021.9 hPa - - - -
1777801707 21.67° C 42% 1022 hPa - - - -
1777801696 21.67° C 42% 1022 hPa - - - -
1777800496 20.56° C 45% 1021.6 hPa - - - -
1777799296 20° C 47% 1021.8 hPa - - - -
1777798103 20° C 47% 1021.8 hPa - - - -
1777798096 20° C 47% 1021.8 hPa - - - -
1777796895 20° C 48% 1021.7 hPa - - - -
1777795703 19.44° C 51% 1021.7 hPa - - - -
1777795695 19.44° C 51% 1021.7 hPa - - - -
1777794495 18.89° C 54% 1021.7 hPa - - - -
1777793306 17.78° C 57% 1021.6 hPa - - - -
1777793295 17.78° C 57% 1021.6 hPa - - - -
1777792099 17.22° C 59% 1021.8 hPa - - - -
1777790906 16.67° C 59% 1021.7 hPa - - - -
1777790899 16.67° C 59% 1021.7 hPa - - - -
1777789699 16.11° C 60% 1021.8 hPa - - - -

* Rain since midnight (hover to see other rain measurements)
** Current wind speed in m/s (hover to see current wind gust speed)